createdAt,value
2019-02-17T00:01:49.876Z,323.70
2019-02-17T00:04:20.666Z,337.40
2019-02-17T00:06:51.531Z,332.73
2019-02-17T00:09:22.319Z,308.45
2019-02-17T00:11:53.043Z,317.20
2019-02-17T00:14:24.036Z,292.33
2019-02-17T00:16:55.005Z,291.23
2019-02-17T00:19:25.787Z,302.70
2019-02-17T00:21:56.503Z,326.93
2019-02-17T00:24:28.167Z,357.27
2019-02-17T00:26:58.982Z,346.17
2019-02-17T00:29:29.674Z,323.93
2019-02-17T00:32:00.398Z,320.03
2019-02-17T00:34:31.186Z,308.80
2019-02-17T00:37:02.010Z,305.43
2019-02-17T00:39:32.779Z,291.53
2019-02-17T00:42:03.602Z,288.77
2019-02-17T00:44:35.777Z,336.50
2019-02-17T00:47:07.978Z,329.13
2019-02-17T00:49:38.774Z,338.33
2019-02-17T00:52:09.591Z,328.20
2019-02-17T00:54:40.358Z,370.37
2019-02-17T00:57:12.437Z,359.53
2019-02-17T00:59:43.129Z,344.60
2019-02-17T01:02:13.946Z,313.53
2019-02-17T01:04:46.133Z,339.23
2019-02-17T01:07:17.919Z,353.17
2019-02-17T01:09:48.705Z,335.43
2019-02-17T01:12:19.425Z,310.87
2019-02-17T01:14:50.217Z,305.90
2019-02-17T01:17:20.940Z,300.33
2019-02-17T01:19:53.119Z,290.43
2019-02-17T01:22:25.795Z,296.27
2019-02-17T01:24:56.685Z,303.27
2019-02-17T01:27:27.509Z,303.73
2019-02-17T01:29:58.294Z,304.03
2019-02-17T01:32:29.123Z,294.60
2019-02-17T01:34:59.805Z,307.73
2019-02-17T01:37:30.625Z,315.23
2019-02-17T01:40:01.413Z,334.97
2019-02-17T01:42:32.234Z,306.93
2019-02-17T01:45:03.011Z,339.57
2019-02-17T01:47:33.895Z,337.67
2019-02-17T01:50:07.689Z,330.87
2019-02-17T01:52:38.413Z,296.70
2019-02-17T01:55:09.198Z,314.77
2019-02-17T01:57:40.035Z,318.30
2019-02-17T02:00:13.444Z,295.33
2019-02-17T02:02:44.209Z,294.55
2019-02-17T02:05:15.027Z,292.33
2019-02-17T02:07:45.741Z,298.83
2019-02-17T02:10:16.544Z,304.07
2019-02-17T02:12:47.333Z,288.03
2019-02-17T02:15:18.029Z,302.77
2019-02-17T02:17:48.750Z,311.87
2019-02-17T02:20:19.534Z,349.33
2019-02-17T02:22:50.343Z,338.13
2019-02-17T02:25:21.030Z,329.97
2019-02-17T02:27:51.890Z,324.30
2019-02-17T02:30:22.620Z,332.03
2019-02-17T02:32:53.522Z,290.00
2019-02-17T02:35:24.284Z,266.27
2019-02-17T02:37:56.542Z,294.73
2019-02-17T02:40:28.779Z,287.07
2019-02-17T02:42:59.549Z,278.97
2019-02-17T02:45:30.334Z,292.53
2019-02-17T02:48:01.062Z,265.57
2019-02-17T02:50:31.851Z,290.90
2019-02-17T02:53:02.658Z,290.47
2019-02-17T02:55:33.440Z,291.80
2019-02-17T02:58:05.240Z,293.20
2019-02-17T03:00:35.934Z,294.17
2019-02-17T03:03:06.854Z,287.13
2019-02-17T03:05:39.270Z,280.67
2019-02-17T03:08:10.119Z,290.07
2019-02-17T03:10:40.813Z,284.07
2019-02-17T03:13:11.652Z,275.03
2019-02-17T03:15:42.505Z,283.47
2019-02-17T03:18:13.322Z,275.77
2019-02-17T03:20:45.509Z,272.98
2019-02-17T03:23:16.225Z,284.80
2019-02-17T03:25:47.987Z,283.33
2019-02-17T03:28:18.702Z,282.77
2019-02-17T03:30:49.404Z,284.00
2019-02-17T03:33:20.196Z,280.20
2019-02-17T03:35:51.102Z,300.47
2019-02-17T03:38:21.874Z,285.22
2019-02-17T03:40:52.577Z,287.33
2019-02-17T03:43:23.366Z,291.17
2019-02-17T03:45:54.157Z,287.90
2019-02-17T03:48:25.103Z,291.83
2019-02-17T03:50:55.810Z,294.17
2019-02-17T03:53:26.691Z,278.03
2019-02-17T03:55:57.484Z,284.63
2019-02-17T03:58:28.802Z,283.37
2019-02-17T04:00:59.491Z,277.80
2019-02-17T04:03:30.203Z,264.40
2019-02-17T04:06:01.035Z,249.50
2019-02-17T04:08:31.861Z,276.90
2019-02-17T04:11:02.658Z,266.07
2019-02-17T04:13:33.375Z,274.63
2019-02-17T04:16:04.175Z,278.10
2019-02-17T04:18:35.000Z,297.53
2019-02-17T04:21:05.833Z,309.67
2019-02-17T04:23:36.691Z,286.45
2019-02-17T04:26:07.378Z,248.30
2019-02-17T04:28:38.201Z,226.22
2019-02-17T04:31:10.494Z,263.07
2019-02-17T04:33:41.465Z,243.77
2019-02-17T04:36:12.254Z,275.73
2019-02-17T04:38:42.977Z,280.80
2019-02-17T04:41:13.885Z,286.67
2019-02-17T04:43:44.702Z,286.60
2019-02-17T04:46:15.496Z,280.30
2019-02-17T04:48:46.221Z,285.87
2019-02-17T04:51:16.911Z,268.93
2019-02-17T04:53:47.807Z,267.73
2019-02-17T04:56:18.769Z,274.10
2019-02-17T04:58:50.328Z,281.77
2019-02-17T05:01:21.086Z,263.47
2019-02-17T05:03:52.046Z,279.80
2019-02-17T05:06:23.802Z,258.17
2019-02-17T05:08:54.526Z,266.40
2019-02-17T05:11:25.322Z,259.73
2019-02-17T05:13:56.043Z,276.00
2019-02-17T05:16:26.729Z,290.60
2019-02-17T05:18:57.453Z,291.43
2019-02-17T05:21:28.184Z,286.80
2019-02-17T05:23:59.045Z,338.03
2019-02-17T05:26:29.838Z,318.87
2019-02-17T05:29:00.555Z,289.30
2019-02-17T05:31:31.417Z,272.63
2019-02-17T05:34:02.162Z,274.57
2019-02-17T05:36:32.987Z,279.97
2019-02-17T05:39:04.946Z,299.60
2019-02-17T05:41:35.746Z,301.10
2019-02-17T05:44:07.915Z,307.27
2019-02-17T05:46:38.606Z,285.87
2019-02-17T05:49:10.880Z,285.37
2019-02-17T05:51:41.678Z,253.63
2019-02-17T05:54:12.505Z,276.97
2019-02-17T05:56:43.182Z,256.33
2019-02-17T05:59:14.702Z,273.13
2019-02-17T06:01:45.426Z,254.37
2019-02-17T06:04:16.259Z,274.57
2019-02-17T06:06:47.051Z,278.13
2019-02-17T06:09:19.257Z,258.57
2019-02-17T06:11:49.963Z,288.33
2019-02-17T06:14:20.869Z,372.53
2019-02-17T06:16:51.732Z,349.90
2019-02-17T06:19:22.645Z,363.90
2019-02-17T06:21:53.338Z,383.73
2019-02-17T06:24:24.147Z,373.43
2019-02-17T06:26:54.974Z,346.80
2019-02-17T06:29:25.695Z,324.90
2019-02-17T06:31:56.562Z,335.50
2019-02-17T06:34:27.374Z,312.77
2019-02-17T06:36:58.175Z,295.00
2019-02-17T06:39:28.990Z,316.70
2019-02-17T06:41:59.697Z,318.93
2019-02-17T06:44:30.501Z,314.90
2019-02-17T06:47:02.150Z,309.47
2019-02-17T06:49:33.013Z,322.50
2019-02-17T06:52:03.943Z,312.67
2019-02-17T06:54:34.769Z,304.43
2019-02-17T06:57:07.202Z,315.40
2019-02-17T06:59:38.865Z,330.90
2019-02-17T07:02:09.615Z,357.20
2019-02-17T07:04:44.986Z,359.10
2019-02-17T07:07:15.841Z,349.50
2019-02-17T07:09:48.275Z,360.98
2019-02-17T07:12:18.966Z,341.27
2019-02-17T07:14:49.697Z,358.03
2019-02-17T07:17:20.486Z,348.50
2019-02-17T07:19:51.199Z,333.83
2019-02-17T07:22:21.984Z,335.33
2019-02-17T07:24:52.812Z,335.17
2019-02-17T07:27:23.542Z,316.03
2019-02-17T07:29:54.359Z,327.18
2019-02-17T07:32:25.175Z,328.83
2019-02-17T07:34:56.032Z,318.57
2019-02-17T07:37:33.345Z,309.53
2019-02-17T07:40:00.909Z,308.65
2019-02-17T07:42:31.852Z,325.85
2019-02-17T07:45:02.846Z,306.00
2019-02-17T07:47:33.641Z,289.15
2019-02-17T07:50:06.900Z,275.10
2019-02-17T07:52:37.659Z,251.80
2019-02-17T07:55:11.535Z,251.02
2019-02-17T07:57:42.494Z,262.45
2019-02-17T08:00:14.274Z,257.48
2019-02-17T08:02:46.086Z,247.80
2019-02-17T08:05:16.898Z,245.97
2019-02-17T08:07:47.690Z,216.08
2019-02-17T08:10:18.455Z,190.03
2019-02-17T08:12:49.238Z,179.45
2019-02-17T08:15:20.050Z,175.97
2019-02-17T08:17:50.730Z,176.12
2019-02-17T08:20:21.545Z,175.42
2019-02-17T08:22:52.230Z,175.00
2019-02-17T08:25:23.045Z,68.20
2019-02-17T08:27:53.722Z,69.05
2019-02-17T08:30:25.490Z,59.35
2019-02-17T08:32:56.258Z,64.03
2019-02-17T08:35:27.039Z,42.85
2019-02-17T08:37:57.807Z,55.20
2019-02-17T08:40:28.515Z,54.67
2019-02-17T08:42:59.286Z,56.20
2019-02-17T08:45:29.987Z,45.73
2019-02-17T08:48:00.711Z,56.08
2019-02-17T08:50:31.406Z,36.48
2019-02-17T08:53:02.084Z,36.45
2019-02-17T08:55:32.778Z,49.25
2019-02-17T08:58:03.487Z,53.08
2019-02-17T09:00:34.483Z,40.15
2019-02-17T09:03:05.254Z,32.05
2019-02-17T09:05:43.919Z,28.80
2019-02-17T09:08:08.423Z,32.08
2019-02-17T09:10:40.624Z,44.35
2019-02-17T09:13:11.466Z,44.70
2019-02-17T09:15:42.257Z,42.93
2019-02-17T09:18:13.040Z,38.48
2019-02-17T09:20:43.813Z,44.98
2019-02-17T09:23:14.477Z,30.32
2019-02-17T09:25:46.671Z,28.65
2019-02-17T09:28:17.434Z,28.80
2019-02-17T09:30:48.229Z,20.60
2019-02-17T09:33:18.997Z,29.42
2019-02-17T09:35:49.799Z,18.05
2019-02-17T09:38:20.467Z,38.90
2019-02-17T09:40:51.262Z,39.30
2019-02-17T09:43:21.939Z,34.83
2019-02-17T09:45:52.730Z,19.32
2019-02-17T09:48:23.497Z,39.25
2019-02-17T09:50:54.302Z,29.65
2019-02-17T09:53:24.972Z,39.18
2019-02-17T09:55:55.776Z,30.17
2019-02-17T09:58:26.606Z,43.45
2019-02-17T10:00:57.399Z,32.88
2019-02-17T10:03:28.095Z,37.60
2019-02-17T10:05:59.867Z,40.52
2019-02-17T10:08:30.643Z,32.03
2019-02-17T10:11:01.333Z,37.67
2019-02-17T10:13:32.105Z,19.12
2019-02-17T10:16:02.903Z,29.95
2019-02-17T10:18:33.807Z,30.80
2019-02-17T10:21:04.511Z,33.23
2019-02-17T10:23:35.289Z,19.35
2019-02-17T10:26:06.177Z,18.35
2019-02-17T10:28:42.374Z,31.68
2019-02-17T10:31:09.442Z,29.92
2019-02-17T10:33:40.181Z,28.90
2019-02-17T10:36:11.078Z,27.20
2019-02-17T10:38:41.849Z,19.52
2019-02-17T10:41:14.043Z,30.32
2019-02-17T10:43:44.814Z,23.77
2019-02-17T10:46:15.525Z,15.93
2019-02-17T10:48:46.370Z,23.73
2019-02-17T10:51:17.165Z,29.27
2019-02-17T10:53:47.985Z,16.77
2019-02-17T10:56:18.709Z,14.93
2019-02-17T10:58:49.475Z,27.65
2019-02-17T11:01:21.138Z,26.87
2019-02-17T11:04:03.191Z,16.48
2019-02-17T11:06:34.011Z,24.98
2019-02-17T11:09:06.766Z,24.90
2019-02-17T11:11:37.581Z,25.12
2019-02-17T11:14:08.271Z,24.70
2019-02-17T11:16:39.178Z,26.00
2019-02-17T11:19:09.965Z,26.75
2019-02-17T11:21:40.676Z,26.33
2019-02-17T11:24:11.554Z,25.08
2019-02-17T11:26:42.298Z,26.52
2019-02-17T11:29:13.057Z,25.37
2019-02-17T11:31:43.865Z,20.10
2019-02-17T11:34:14.650Z,24.50
2019-02-17T11:36:45.461Z,24.40
2019-02-17T11:39:17.710Z,27.55
2019-02-17T11:41:48.458Z,12.93
2019-02-17T11:44:19.257Z,24.52
2019-02-17T11:46:49.971Z,26.27
2019-02-17T11:49:20.649Z,26.55
2019-02-17T11:51:51.413Z,14.38
2019-02-17T11:54:22.110Z,24.65
2019-02-17T11:56:52.922Z,22.65
2019-02-17T11:59:23.604Z,21.68
2019-02-17T12:01:55.163Z,18.45
2019-02-17T12:04:26.325Z,16.87
2019-02-17T12:06:57.224Z,24.72
2019-02-17T12:09:27.895Z,18.95
2019-02-17T12:11:58.711Z,13.65
2019-02-17T12:14:32.800Z,21.80
2019-02-17T12:17:03.710Z,17.25
2019-02-17T12:19:34.383Z,14.03
2019-02-17T12:22:09.456Z,14.55
2019-02-17T12:24:41.878Z,13.85
2019-02-17T12:27:20.145Z,15.72
2019-02-17T12:29:52.619Z,10.43
2019-02-17T12:32:25.135Z,18.07
2019-02-17T12:34:56.014Z,15.65
2019-02-17T12:37:26.719Z,23.25
2019-02-17T12:39:57.404Z,20.95
2019-02-17T12:42:28.208Z,11.00
2019-02-17T12:44:59.054Z,21.27
2019-02-17T12:47:29.810Z,13.72
2019-02-17T12:50:00.629Z,21.07
2019-02-17T12:52:31.520Z,19.82
2019-02-17T12:55:03.958Z,11.68
2019-02-17T12:57:34.762Z,18.42
2019-02-17T13:00:11.831Z,13.15
2019-02-17T13:02:43.415Z,11.55
2019-02-17T13:05:14.084Z,15.13
2019-02-17T13:07:44.898Z,19.92
2019-02-17T13:10:17.254Z,18.62
2019-02-17T13:12:47.953Z,9.35
2019-02-17T13:15:18.778Z,9.65
2019-02-17T13:17:49.494Z,16.95
2019-02-17T13:20:20.365Z,8.73
2019-02-17T13:22:51.065Z,11.45
2019-02-17T13:25:21.749Z,15.70
2019-02-17T13:27:52.548Z,13.13
2019-02-17T13:30:24.694Z,14.50
2019-02-17T13:32:55.392Z,7.72
2019-02-17T13:35:26.162Z,13.22
2019-02-17T13:37:56.966Z,17.32
2019-02-17T13:40:27.747Z,18.87
2019-02-17T13:42:58.559Z,16.70
2019-02-17T13:45:29.339Z,16.70
2019-02-17T13:48:00.142Z,10.90
2019-02-17T13:50:32.305Z,15.30
2019-02-17T13:53:11.471Z,20.75
2019-02-17T13:55:35.596Z,13.50
2019-02-17T13:58:06.478Z,13.53
2019-02-17T14:00:37.147Z,19.00
2019-02-17T14:03:08.718Z,17.02
2019-02-17T14:05:39.498Z,14.35
2019-02-17T14:08:10.295Z,17.82
2019-02-17T14:10:40.973Z,20.40
2019-02-17T14:13:11.788Z,16.25
2019-02-17T14:15:42.565Z,17.57
2019-02-17T14:18:13.278Z,19.17
2019-02-17T14:20:44.059Z,15.75
2019-02-17T14:23:14.752Z,15.40
2019-02-17T14:25:45.529Z,8.55
2019-02-17T14:28:16.401Z,11.73
2019-02-17T14:30:47.258Z,15.93
2019-02-17T14:33:18.062Z,13.43
2019-02-17T14:35:48.741Z,17.60
2019-02-17T14:38:19.446Z,17.62
2019-02-17T14:40:50.121Z,20.10
2019-02-17T14:43:20.828Z,22.85
2019-02-17T14:45:51.586Z,15.08
2019-02-17T14:48:22.390Z,7.65
2019-02-17T14:50:53.166Z,16.97
2019-02-17T14:53:24.070Z,16.20
2019-02-17T14:55:54.915Z,16.97
2019-02-17T14:58:25.693Z,22.13
2019-02-17T15:00:56.446Z,24.92
2019-02-17T15:03:27.493Z,15.83
2019-02-17T15:05:59.666Z,22.85
2019-02-17T15:08:30.512Z,23.62
2019-02-17T15:11:01.265Z,21.12
2019-02-17T15:13:32.070Z,20.00
2019-02-17T15:16:02.846Z,26.20
2019-02-17T15:18:33.658Z,21.33
2019-02-17T15:21:04.335Z,23.62
2019-02-17T15:23:35.050Z,17.42
2019-02-17T15:26:05.798Z,25.35
2019-02-17T15:28:36.713Z,31.62
2019-02-17T15:31:07.491Z,29.95
2019-02-17T15:33:38.302Z,32.95
2019-02-17T15:36:09.090Z,31.00
2019-02-17T15:38:39.803Z,26.25
2019-02-17T15:41:10.583Z,26.17
2019-02-17T15:43:41.288Z,28.75
2019-02-17T15:46:13.308Z,30.00
2019-02-17T15:48:44.354Z,30.90
2019-02-17T15:51:15.202Z,32.13
2019-02-17T15:53:46.036Z,35.30
2019-02-17T15:56:16.821Z,30.30
2019-02-17T15:58:47.614Z,30.55
2019-02-17T16:01:18.496Z,28.00
2019-02-17T16:03:49.512Z,28.12
2019-02-17T16:06:20.284Z,29.35
2019-02-17T16:08:52.386Z,30.25
2019-02-17T16:11:24.379Z,32.65
2019-02-17T16:13:55.206Z,36.08
2019-02-17T16:16:25.944Z,41.28
2019-02-17T16:18:56.662Z,42.53
2019-02-17T16:21:27.433Z,45.43
2019-02-17T16:23:58.735Z,53.78
2019-02-17T16:26:29.508Z,72.60
2019-02-17T16:29:00.234Z,86.67
2019-02-17T16:31:31.018Z,317.18
2019-02-17T16:34:01.838Z,110.97
2019-02-17T16:36:34.017Z,54.90
2019-02-17T16:39:06.971Z,72.75
2019-02-17T16:41:37.826Z,74.55
2019-02-17T16:44:08.703Z,69.82
2019-02-17T16:46:39.378Z,66.37
2019-02-17T16:49:10.257Z,74.45
2019-02-17T16:51:41.911Z,85.87
2019-02-17T16:54:14.102Z,78.02
2019-02-17T16:56:44.946Z,66.33
2019-02-17T16:59:15.918Z,109.20
2019-02-17T17:01:46.709Z,619.33
2019-02-17T17:04:19.627Z,733.67
2019-02-17T17:06:50.318Z,573.10
2019-02-17T17:09:21.047Z,698.78
2019-02-17T17:11:51.729Z,218.45
2019-02-17T17:14:22.570Z,339.00
2019-02-17T17:16:53.270Z,233.68
2019-02-17T17:19:24.071Z,167.87
2019-02-17T17:21:54.915Z,386.27
2019-02-17T17:24:25.629Z,404.55
2019-02-17T17:26:56.316Z,283.68
2019-02-17T17:29:27.208Z,216.40
2019-02-17T17:31:57.894Z,201.02
2019-02-17T17:34:28.615Z,160.05
2019-02-17T17:36:59.399Z,194.43
2019-02-17T17:39:30.163Z,175.55
2019-02-17T17:42:00.996Z,197.72
2019-02-17T17:44:31.811Z,160.97
2019-02-17T17:47:02.677Z,150.57
2019-02-17T17:49:34.567Z,145.75
2019-02-17T17:52:06.405Z,148.28
2019-02-17T17:54:37.370Z,160.40
2019-02-17T17:57:08.392Z,181.70
2019-02-17T17:59:39.246Z,159.20
2019-02-17T18:02:10.162Z,335.80
2019-02-17T18:04:41.912Z,237.85
2019-02-17T18:07:14.225Z,191.40
2019-02-17T18:09:45.273Z,192.98
2019-02-17T18:12:16.426Z,179.70
2019-02-17T18:14:47.275Z,163.95
2019-02-17T18:17:18.380Z,130.20
2019-02-17T18:19:50.403Z,137.25
2019-02-17T18:22:21.648Z,121.00
2019-02-17T18:24:52.490Z,136.12
2019-02-17T18:27:23.606Z,192.98
2019-02-17T18:29:55.127Z,145.62
2019-02-17T18:32:26.113Z,206.47
2019-02-17T18:34:56.899Z,154.75
2019-02-17T18:37:27.790Z,220.73
2019-02-17T18:39:58.711Z,203.77
2019-02-17T18:42:29.690Z,283.85
2019-02-17T18:45:00.532Z,254.03
2019-02-17T18:47:31.596Z,294.15
2019-02-17T18:50:02.777Z,212.15
2019-02-17T18:52:33.735Z,260.93
2019-02-17T18:55:06.630Z,245.15
2019-02-17T18:57:38.422Z,242.20
2019-02-17T19:00:20.645Z,247.33
2019-02-17T19:02:51.804Z,254.07
2019-02-17T19:05:31.724Z,254.35
2019-02-17T19:07:57.420Z,275.82
2019-02-17T19:10:28.382Z,264.35
2019-02-17T19:12:59.379Z,263.40
2019-02-17T19:15:30.358Z,262.88
2019-02-17T19:18:01.319Z,212.08
2019-02-17T19:20:34.642Z,303.20
2019-02-17T19:23:05.450Z,283.07
2019-02-17T19:25:36.262Z,229.18
2019-02-17T19:28:07.281Z,179.70
2019-02-17T19:30:38.068Z,219.82
2019-02-17T19:33:08.920Z,258.35
2019-02-17T19:35:42.221Z,175.15
2019-02-17T19:38:12.552Z,164.75
2019-02-17T19:40:43.536Z,160.43
2019-02-17T19:43:14.382Z,157.47
2019-02-17T19:45:45.467Z,151.80
2019-02-17T19:48:16.268Z,156.15
2019-02-17T19:50:46.978Z,196.78
2019-02-17T19:53:18.749Z,213.25
2019-02-17T19:55:50.226Z,197.57
2019-02-17T19:58:21.014Z,263.92
2019-02-17T20:00:51.828Z,255.20
2019-02-17T20:03:24.362Z,240.07
2019-02-17T20:06:00.103Z,231.82
2019-02-17T20:08:31.190Z,236.10
2019-02-17T20:11:02.004Z,246.15
2019-02-17T20:13:32.798Z,241.48
2019-02-17T20:16:03.619Z,224.65
2019-02-17T20:18:34.486Z,238.70
2019-02-17T20:21:05.478Z,186.80
2019-02-17T20:23:36.163Z,191.30
2019-02-17T20:26:06.908Z,207.55
2019-02-17T20:28:43.441Z,209.62
2019-02-17T20:31:10.123Z,221.85
2019-02-17T20:33:41.003Z,269.07
2019-02-17T20:36:11.917Z,297.27
2019-02-17T20:38:42.766Z,258.57
2019-02-17T20:41:13.487Z,275.48
2019-02-17T20:43:44.577Z,267.75
2019-02-17T20:46:15.418Z,259.45
2019-02-17T20:48:47.605Z,274.67
2019-02-17T20:51:18.518Z,279.45
2019-02-17T20:53:49.376Z,256.57
2019-02-17T20:56:20.307Z,251.70
2019-02-17T20:58:51.344Z,248.90
2019-02-17T21:01:22.156Z,267.90
2019-02-17T21:03:52.998Z,261.92
2019-02-17T21:06:24.424Z,254.87
2019-02-17T21:08:55.309Z,235.10
2019-02-17T21:11:26.142Z,250.15
2019-02-17T21:13:58.322Z,251.55
2019-02-17T21:16:30.614Z,250.97
2019-02-17T21:19:01.362Z,254.28
2019-02-17T21:21:32.085Z,244.37
2019-02-17T21:24:02.941Z,248.35
2019-02-17T21:26:33.751Z,267.70
2019-02-17T21:29:04.458Z,273.57
2019-02-17T21:31:36.237Z,263.40
2019-02-17T21:34:07.194Z,258.68
2019-02-17T21:36:38.234Z,245.95
2019-02-17T21:39:09.029Z,237.60
2019-02-17T21:41:39.847Z,228.83
2019-02-17T21:44:10.688Z,288.30
2019-02-17T21:46:41.520Z,304.05
2019-02-17T21:49:12.410Z,293.37
2019-02-17T21:51:43.327Z,326.55
2019-02-17T21:54:14.010Z,310.95
2019-02-17T21:56:44.864Z,266.15
2019-02-17T21:59:16.470Z,274.58
2019-02-17T22:01:47.868Z,267.45
2019-02-17T22:04:19.824Z,246.53
2019-02-17T22:06:53.262Z,228.37
2019-02-17T22:09:24.745Z,225.15
2019-02-17T22:11:56.180Z,239.65
2019-02-17T22:14:27.757Z,224.80
2019-02-17T22:16:58.690Z,237.12
2019-02-17T22:19:29.480Z,253.05
2019-02-17T22:22:00.295Z,230.60
2019-02-17T22:24:31.087Z,235.23
2019-02-17T22:27:03.290Z,231.43
2019-02-17T22:29:36.275Z,231.32
2019-02-17T22:32:07.694Z,234.92
2019-02-17T22:34:39.250Z,237.90
2019-02-17T22:37:10.574Z,230.72
2019-02-17T22:39:42.861Z,224.45
2019-02-17T22:42:15.665Z,229.23
2019-02-17T22:44:47.656Z,236.85
2019-02-17T22:47:19.052Z,234.62
2019-02-17T22:49:50.473Z,232.95
2019-02-17T22:52:23.122Z,245.45
2019-02-17T22:54:54.645Z,229.47
2019-02-17T22:57:25.850Z,228.70
2019-02-17T22:59:56.769Z,227.97
2019-02-17T23:02:28.001Z,241.55
2019-02-17T23:05:01.064Z,255.65
2019-02-17T23:07:33.859Z,252.43
2019-02-17T23:10:09.354Z,256.80
2019-02-17T23:12:41.476Z,262.68
2019-02-17T23:15:14.304Z,252.53
2019-02-17T23:17:45.339Z,242.75
2019-02-17T23:20:17.154Z,246.62
2019-02-17T23:22:48.589Z,245.25
2019-02-17T23:25:20.854Z,237.32
2019-02-17T23:27:52.556Z,239.08
2019-02-17T23:30:23.313Z,241.55
2019-02-17T23:32:54.406Z,248.35
2019-02-17T23:35:25.409Z,239.78
2019-02-17T23:37:56.357Z,246.25
2019-02-17T23:40:27.250Z,249.02
2019-02-17T23:42:58.134Z,259.95
2019-02-17T23:45:28.946Z,249.90
2019-02-17T23:47:59.765Z,246.15
2019-02-17T23:50:30.545Z,251.15
2019-02-17T23:53:01.377Z,264.75
2019-02-17T23:55:32.297Z,272.48
2019-02-17T23:58:03.152Z,270.70
